Time;durP1;ratioP1;P1;durP2;ratioP2;P2;SDS_P1;SDS_P2;PMS_P1;PMS_P2;Temp;Humidity;BMP_temperature;BMP_pressure;BME280_temperature;BME280_humidity;BME280_pressure;Samples;Min_cycle;Max_cycle;Signal;HPM_P1;HPM_P2
2022/06/21 00:02:14;;;;;;;4.00;2.60;;;;;;;20.47;49.03;99774.14;117354;1180;22899;-55
2022/06/21 00:04:41;;;;;;;3.10;2.40;;;;;;;20.45;49.26;99769.67;117370;1184;21847;-55
2022/06/21 00:07:13;;;;;;;4.10;2.60;;;;;;;20.43;49.33;99770.00;117363;1186;21846;-55
2022/06/21 00:09:40;;;;;;;4.30;2.50;;;;;;;20.40;49.24;99770.00;117402;1182;24260;-55
2022/06/21 00:12:11;;;;;;;3.40;2.40;;;;;;;20.38;49.20;99770.29;117305;1182;23297;-54
2022/06/21 00:14:39;;;;;;;3.90;2.40;;;;;;;20.39;48.98;99769.70;117373;1183;21896;-55
2022/06/21 00:17:11;;;;;;;5.40;2.70;;;;;;;20.41;49.01;99769.57;117438;1182;22719;-55
2022/06/21 00:19:38;;;;;;;5.80;2.80;;;;;;;20.42;48.97;99766.29;117459;1182;22441;-54
2022/06/21 00:22:05;;;;;;;3.60;2.50;;;;;;;20.41;48.90;99766.34;117362;1182;23506;-52
2022/06/21 00:24:32;;;;;;;5.30;2.80;;;;;;;20.40;48.96;99758.95;117363;1182;22988;-53
2022/06/21 00:26:59;;;;;;;3.90;2.90;;;;;;;20.39;48.85;99758.65;117347;1182;22911;-54
2022/06/21 00:29:26;;;;;;;3.30;2.10;;;;;;;20.36;49.07;99758.45;117351;1185;21862;-54
2022/06/21 00:31:53;;;;;;;3.80;2.50;;;;;;;20.33;48.97;99758.11;117286;1185;22914;-53
2022/06/21 00:34:21;;;;;;;4.60;2.50;;;;;;;20.30;49.01;99757.41;117309;1180;22944;-53
2022/06/21 00:36:48;;;;;;;3.60;2.60;;;;;;;20.27;48.97;99762.59;117149;1188;22030;-53
2022/06/21 00:39:16;;;;;;;3.80;2.40;;;;;;;20.24;48.91;99765.66;117365;1184;21893;-53
2022/06/21 00:41:52;;;;;;;5.30;2.30;;;;;;;20.21;48.88;99766.86;117376;1180;22959;-53
2022/06/21 00:44:33;;;;;;;6.60;2.70;;;;;;;20.17;48.98;99769.59;117405;1185;21833;-55
2022/06/21 00:47:16;;;;;;;3.50;2.60;;;;;;;20.08;49.29;99767.81;117341;1185;23031;-55
2022/06/21 00:50:11;;;;;;;5.30;3.00;;;;;;;20.00;49.20;99769.56;117269;1188;21858;-53
2022/06/21 00:52:43;;;;;;;3.70;2.30;;;;;;;19.92;49.09;99773.45;117318;1186;21853;-55
2022/06/21 00:55:17;;;;;;;3.70;2.40;;;;;;;19.87;49.16;99772.50;117335;1186;21858;-55
2022/06/21 00:57:48;;;;;;;3.40;2.30;;;;;;;19.83;49.25;99765.44;117338;1185;23006;-52
2022/06/21 01:00:34;;;;;;;4.10;2.30;;;;;;;19.78;49.29;99759.17;117307;1185;22960;-52
2022/06/21 01:03:06;;;;;;;5.20;2.40;;;;;;;19.72;49.27;99751.84;117381;1182;22916;-52
2022/06/21 01:05:36;;;;;;;4.90;3.00;;;;;;;19.69;49.16;99749.86;117340;1183;21836;-52
2022/06/21 01:08:03;;;;;;;3.10;2.30;;;;;;;19.69;49.22;99746.88;117348;1185;21855;-54
2022/06/21 01:10:30;;;;;;;7.10;2.40;;;;;;;19.68;49.19;99745.31;117143;1186;23465;-54
2022/06/21 01:13:00;;;;;;;5.20;2.70;;;;;;;19.66;49.29;99742.20;117316;1180;22915;-55
2022/06/21 01:15:35;;;;;;;4.20;2.40;;;;;;;19.64;49.38;99741.12;117312;1184;21849;-52
2022/06/21 01:18:03;;;;;;;4.20;2.60;;;;;;;19.61;49.24;99741.80;117350;1184;21858;-55
2022/06/21 01:20:33;;;;;;;6.00;2.50;;;;;;;19.59;49.29;99742.46;117183;1189;22622;-54
2022/06/21 01:23:23;;;;;;;4.20;2.50;;;;;;;19.57;49.26;99740.98;117411;1185;24113;-53
2022/06/21 01:26:28;;;;;;;2.50;2.00;;;;;;;19.56;49.26;99736.27;117377;1186;21859;-52
2022/06/21 01:28:55;;;;;;;5.00;2.70;;;;;;;19.54;49.51;99732.99;117416;1182;23013;-53
2022/06/21 01:31:22;;;;;;;3.20;2.40;;;;;;;19.54;49.31;99728.56;117373;1183;23634;-52
2022/06/21 01:33:49;;;;;;;3.00;2.10;;;;;;;19.54;49.34;99728.15;117319;1181;21850;-55
2022/06/21 01:36:19;;;;;;;4.40;2.40;;;;;;;19.52;49.36;99723.48;117383;1182;23554;-53
2022/06/21 01:39:09;;;;;;;4.20;2.40;;;;;;;19.49;49.30;99722.60;117352;1185;22915;-55
2022/06/21 01:41:50;;;;;;;4.00;2.10;;;;;;;19.49;49.38;99720.66;117381;1182;23435;-53
2022/06/21 01:44:29;;;;;;;5.20;2.70;;;;;;;19.47;49.30;99718.63;117341;1181;22928;-52
2022/06/21 01:46:56;;;;;;;6.30;2.90;;;;;;;19.45;49.44;99718.23;117456;1186;22371;-55
2022/06/21 01:49:25;;;;;;;4.50;2.90;;;;;;;19.40;49.35;99714.23;117501;1186;21848;-55
2022/06/21 01:52:01;;;;;;;7.60;2.60;;;;;;;19.39;49.39;99717.71;117388;1182;24172;-52
2022/06/21 01:54:32;;;;;;;6.10;2.60;;;;;;;19.37;49.33;99716.18;117314;1182;22912;-53
2022/06/21 01:56:59;;;;;;;6.00;2.50;;;;;;;19.35;49.34;99714.74;117442;1182;23442;-54
2022/06/21 01:59:32;;;;;;;3.60;2.40;;;;;;;19.32;49.45;99709.71;117410;1182;23637;-52
2022/06/21 02:02:01;;;;;;;7.10;2.90;;;;;;;19.32;49.42;99714.86;117407;1183;23432;-55
2022/06/21 02:04:44;;;;;;;5.10;2.70;;;;;;;19.31;49.44;99717.10;117422;1185;21849;-55
2022/06/21 02:07:13;;;;;;;4.60;2.50;;;;;;;19.26;49.55;99716.30;117413;1185;22962;-53
2022/06/21 02:10:04;;;;;;;5.20;3.20;;;;;;;19.22;49.45;99711.78;117455;1186;21999;-55
2022/06/21 02:12:30;;;;;;;7.10;2.60;;;;;;;19.14;49.55;99712.74;117339;1184;21858;-52
2022/06/21 02:14:58;;;;;;;6.00;2.80;;;;;;;19.09;49.73;99711.45;117314;1185;21849;-55
2022/06/21 02:17:34;;;;;;;5.60;2.60;;;;;;;19.07;49.79;99706.60;117143;1182;24160;-55
2022/06/21 02:20:08;;;;;;;4.10;2.60;;;;;;;19.06;49.93;99697.22;117381;1184;22839;-52
2022/06/21 02:22:35;;;;;;;7.00;2.50;;;;;;;19.04;49.87;99693.75;117265;1182;21941;-55
2022/06/21 02:25:03;;;;;;;6.00;2.90;;;;;;;19.03;49.97;99695.06;117305;1180;22921;-52
2022/06/21 02:27:32;;;;;;;9.80;2.70;;;;;;;19.03;50.00;99699.70;117331;1185;21859;-55
2022/06/21 02:30:00;;;;;;;9.20;2.90;;;;;;;19.05;49.81;99699.75;117317;1185;24206;-55
2022/06/21 02:32:32;;;;;;;11.40;2.80;;;;;;;19.05;50.06;99704.56;117535;1185;21852;-54
2022/06/21 02:35:08;;;;;;;4.40;2.40;;;;;;;19.06;50.07;99708.61;117393;1185;22918;-53
2022/06/21 02:37:35;;;;;;;4.90;3.00;;;;;;;19.07;50.44;99706.92;117352;1184;22915;-55
2022/06/21 02:40:04;;;;;;;11.00;3.10;;;;;;;19.05;50.44;99702.20;117216;1183;22156;-55
2022/06/21 02:42:32;;;;;;;8.50;3.00;;;;;;;19.02;50.44;99702.22;117478;1184;21839;-54
2022/06/21 02:45:07;;;;;;;5.20;3.00;;;;;;;18.99;50.43;99704.55;117345;1185;21845;-52
2022/06/21 02:47:39;;;;;;;6.60;2.90;;;;;;;18.97;50.58;99706.30;117174;1188;22915;-53
2022/06/21 02:50:37;;;;;;;5.40;2.70;;;;;;;18.97;50.60;99712.09;117313;1185;21850;-55
2022/06/21 02:53:07;;;;;;;4.90;3.00;;;;;;;19.03;50.79;99717.61;117398;1186;22915;-55
2022/06/21 02:55:41;;;;;;;5.30;2.60;;;;;;;19.09;50.79;99719.09;117367;1185;21861;-53
2022/06/21 02:58:15;;;;;;;5.20;2.50;;;;;;;19.13;50.85;99720.07;117371;1186;21851;-55
2022/06/21 03:00:42;;;;;;;5.30;2.60;;;;;;;19.16;50.97;99716.71;117329;1182;21846;-53
2022/06/21 03:03:16;;;;;;;5.60;2.70;;;;;;;19.17;51.07;99710.08;117010;1186;24255;-55
2022/06/21 03:05:44;;;;;;;4.50;2.70;;;;;;;19.21;50.82;99706.84;117178;1188;21846;-55
2022/06/21 03:08:11;;;;;;;4.80;2.40;;;;;;;19.26;50.83;99707.23;117204;1183;23563;-55
2022/06/21 03:10:43;;;;;;;4.80;3.60;;;;;;;19.29;50.88;99704.73;117324;1182;21861;-55
2022/06/21 03:13:20;;;;;;;5.80;3.10;;;;;;;19.34;50.88;99701.95;117154;1188;21856;-53
2022/06/21 03:15:53;;;;;;;4.00;2.90;;;;;;;19.40;51.01;99697.18;117351;1181;22918;-55
2022/06/21 03:18:26;;;;;;;4.80;3.10;;;;;;;19.45;50.92;99697.73;117373;1185;23566;-52
2022/06/21 03:20:53;;;;;;;4.50;2.60;;;;;;;19.50;50.86;99696.39;117368;1184;22918;-52
2022/06/21 03:23:20;;;;;;;6.50;2.80;;;;;;;19.54;50.91;99695.60;117338;1185;21849;-55
2022/06/21 03:26:00;;;;;;;4.50;2.70;;;;;;;19.59;50.95;99691.21;117389;1185;23539;-53
2022/06/21 03:28:29;;;;;;;;;;;;;;;19.66;50.84;99689.21;117467;1185;21833;-53
2022/06/21 03:31:39;;;;;;;5.20;2.80;;;;;;;19.73;50.88;99685.20;117397;1183;22996;-52
2022/06/21 03:34:09;;;;;;;4.60;2.80;;;;;;;19.84;50.88;99681.50;117229;1189;21846;-53
2022/06/21 03:36:36;;;;;;;6.40;2.80;;;;;;;19.93;51.08;99684.21;117398;1185;23452;-52
2022/06/21 03:39:04;;;;;;;3.90;2.30;;;;;;;20.01;51.48;99684.09;117162;1187;22612;-55
2022/06/21 03:41:43;;;;;;;4.20;2.50;;;;;;;20.09;51.12;99681.27;117362;1183;22985;-52
2022/06/21 03:44:32;;;;;;;3.60;2.90;;;;;;;20.19;51.56;99681.65;117372;1185;21896;-55
2022/06/21 03:47:15;;;;;;;4.10;2.40;;;;;;;20.34;51.16;99684.15;117426;1185;21855;-53
2022/06/21 03:49:42;;;;;;;3.80;2.60;;;;;;;20.48;51.14;99681.64;117341;1184;22832;-55
2022/06/21 03:52:13;;;;;;;6.60;2.50;;;;;;;20.62;50.96;99671.07;117303;1186;21861;-55
2022/06/21 03:54:48;;;;;;;7.10;2.60;;;;;;;20.80;50.83;99666.21;117361;1184;22915;-55
2022/06/21 03:57:24;;;;;;;4.30;2.60;;;;;;;20.93;50.67;99659.85;117369;1185;22969;-55
2022/06/21 04:00:11;;;;;;;6.10;2.60;;;;;;;21.08;50.33;99648.48;117429;1183;23542;-53
2022/06/21 04:03:01;;;;;;;5.50;2.90;;;;;;;21.24;50.24;99647.55;117348;1185;23544;-53
2022/06/21 04:05:37;;;;;;;5.00;2.60;;;;;;;21.42;50.11;99650.27;117369;1185;21855;-53
2022/06/21 04:08:09;;;;;;;5.30;2.80;;;;;;;21.59;50.05;99654.66;117272;1184;21902;-55
2022/06/21 04:11:08;;;;;;;4.20;2.50;;;;;;;21.78;49.79;99656.17;117202;1182;22935;-53
2022/06/21 04:13:53;;;;;;;5.90;2.60;;;;;;;21.98;49.57;99644.05;117262;1185;22091;-54
2022/06/21 04:16:32;;;;;;;5.90;2.80;;;;;;;22.17;49.24;99643.44;117431;1182;24162;-54
2022/06/21 04:19:38;;;;;;;4.10;2.50;;;;;;;22.35;49.02;99643.19;117338;1186;21868;-54
2022/06/21 04:22:05;;;;;;;6.50;2.50;;;;;;;22.56;48.56;99636.71;117339;1185;22650;-53
2022/06/21 04:24:41;;;;;;;5.80;2.20;;;;;;;22.73;48.36;99637.98;117184;1186;21871;-53
2022/06/21 04:27:28;;;;;;;4.80;2.30;;;;;;;22.90;48.09;99635.80;117380;1185;21836;-54
2022/06/21 04:30:03;;;;;;;8.70;2.30;;;;;;;23.09;47.90;99628.84;117397;1185;23484;-52
2022/06/21 04:33:16;;;;;;;4.60;1.70;;;;;;;23.27;47.79;99629.06;117292;1183;22935;-52
2022/06/21 04:36:02;;;;;;;3.70;2.10;;;;;;;23.47;47.34;99630.44;117045;1185;23566;-52
2022/06/21 04:38:35;;;;;;;4.40;1.80;;;;;;;23.63;47.02;99629.84;117422;1183;22985;-54
2022/06/21 04:41:38;;;;;;;4.20;2.10;;;;;;;23.81;46.90;99627.73;117365;1182;22915;-53
2022/06/21 04:44:10;;;;;;;4.30;2.20;;;;;;;24.02;46.65;99626.30;117336;1186;23616;-53
2022/06/21 04:46:41;;;;;;;5.70;1.80;;;;;;;24.18;46.40;99623.90;117440;1182;22661;-54
2022/06/21 04:49:13;;;;;;;4.70;1.90;;;;;;;24.35;46.09;99625.09;117364;1184;21849;-53
2022/06/21 04:52:06;;;;;;;3.30;1.80;;;;;;;24.49;45.83;99622.63;117053;1185;23468;-55
2022/06/21 04:54:34;;;;;;;4.50;1.60;;;;;;;24.69;45.42;99618.50;117327;1186;23006;-54
2022/06/21 04:57:05;;;;;;;4.10;1.70;;;;;;;24.84;44.88;99614.76;117299;1184;24160;-54
2022/06/21 04:59:32;;;;;;;7.50;2.00;;;;;;;24.99;44.69;99612.40;117361;1182;22988;-55
2022/06/21 05:01:59;;;;;;;8.00;2.10;;;;;;;25.13;44.64;99605.27;117386;1182;22622;-55
2022/06/21 05:04:37;;;;;;;4.70;1.70;;;;;;;25.26;44.69;99599.36;117074;1185;21928;-54
2022/06/21 05:07:07;;;;;;;5.20;1.80;;;;;;;25.41;44.63;99597.55;117418;1183;21843;-54
2022/06/21 05:09:34;;;;;;;3.20;2.20;;;;;;;25.55;44.52;99599.55;117388;1183;24190;-55
2022/06/21 05:12:23;;;;;;;4.10;2.00;;;;;;;25.68;44.42;99600.39;117243;1185;22925;-54
2022/06/21 05:14:58;;;;;;;5.40;2.30;;;;;;;25.82;44.54;99597.76;117254;1185;23332;-55
2022/06/21 05:17:25;;;;;;;4.50;2.20;;;;;;;26.04;44.46;99593.11;117346;1184;21852;-56
2022/06/21 05:19:58;;;;;;;5.20;2.40;;;;;;;26.17;43.79;99591.42;117331;1185;21853;-55
2022/06/21 05:22:36;;;;;;;3.70;1.90;;;;;;;26.31;43.87;99582.42;117337;1182;21849;-56
2022/06/21 05:25:06;;;;;;;6.30;2.00;;;;;;;26.50;43.94;99576.72;117391;1185;23633;-55
2022/06/21 05:27:44;;;;;;;3.50;2.10;;;;;;;26.64;43.91;99575.64;117591;1184;21867;-56
2022/06/21 05:30:46;;;;;;;5.50;2.20;;;;;;;26.84;43.25;99577.95;117365;1185;22092;-56
2022/06/21 05:33:24;;;;;;;3.20;2.10;;;;;;;27.06;43.07;99578.64;117202;1184;22970;-55
2022/06/21 05:35:51;;;;;;;3.40;1.90;;;;;;;27.21;42.94;99578.29;117411;1182;22801;-54
2022/06/21 05:38:23;;;;;;;4.40;1.80;;;;;;;27.36;42.67;99573.45;117472;1182;22867;-52
2022/06/21 05:40:57;;;;;;;3.90;1.50;;;;;;;27.51;42.78;99572.41;117383;1184;21852;-54
2022/06/21 05:43:39;;;;;;;5.00;1.90;;;;;;;27.68;42.49;99572.77;117446;1186;21851;-55
2022/06/21 05:46:12;;;;;;;9.60;2.10;;;;;;;27.82;41.54;99570.89;117396;1184;23458;-55
2022/06/21 05:48:40;;;;;;;3.00;1.70;;;;;;;27.94;41.32;99572.28;117438;1185;21849;-55
2022/06/21 05:51:12;;;;;;;3.40;2.00;;;;;;;28.04;41.31;99569.05;117363;1182;22912;-56
2022/06/21 05:53:47;;;;;;;5.00;2.70;;;;;;;28.16;40.83;99555.73;117319;1184;21859;-56
2022/06/21 05:56:19;;;;;;;3.60;1.90;;;;;;;28.27;40.76;99554.07;117408;1184;21860;-55
2022/06/21 05:58:54;;;;;;;3.70;1.70;;;;;;;28.41;40.57;99552.30;117394;1180;21864;-55
2022/06/21 06:01:25;;;;;;;4.30;1.70;;;;;;;28.55;40.39;99555.08;117368;1185;21855;-55
2022/06/21 06:03:59;;;;;;;3.30;1.70;;;;;;;28.71;40.37;99557.04;117378;1184;21839;-55
2022/06/21 06:06:29;;;;;;;3.10;1.60;;;;;;;28.89;40.14;99549.86;117449;1182;22959;-55
2022/06/21 06:09:00;;;;;;;3.50;1.30;;;;;;;29.10;40.05;99548.62;117255;1182;23538;-56
2022/06/21 06:12:15;;;;;;;;;;;;;;;29.17;38.47;99543.37;117379;1182;21960;-56
2022/06/21 06:14:44;;;;;;;5.00;1.80;;;;;;;29.26;39.09;99528.66;117126;1184;23547;-54
2022/06/21 06:17:41;;;;;;;6.60;1.90;;;;;;;29.42;39.31;99523.27;117217;1182;23487;-54
2022/06/21 06:20:34;;;;;;;3.30;2.00;;;;;;;29.60;39.33;99515.05;117233;1185;22913;-55
2022/06/21 06:23:29;;;;;;;2.80;1.70;;;;;;;29.77;38.98;99513.04;117375;1185;21842;-56
2022/06/21 06:26:06;;;;;;;4.30;1.70;;;;;;;29.87;37.92;99506.73;117317;1185;23338;-54
2022/06/21 06:28:38;;;;;;;3.30;1.60;;;;;;;30.00;37.94;99500.38;117409;1185;22299;-54
2022/06/21 06:31:19;;;;;;;6.00;1.70;;;;;;;30.13;37.63;99498.59;117358;1182;21858;-54
2022/06/21 06:33:52;;;;;;;2.60;1.70;;;;;;;30.18;36.80;99500.54;117374;1186;22847;-55
2022/06/21 06:36:22;;;;;;;1.80;1.30;;;;;;;30.31;37.50;99496.27;117341;1185;21850;-55
2022/06/21 06:38:49;;;;;;;4.30;1.60;;;;;;;30.43;36.00;99494.27;117324;1185;22867;-55
2022/06/21 06:41:28;;;;;;;2.30;1.30;;;;;;;30.48;35.75;99490.40;117396;1182;21848;-55
2022/06/21 06:43:58;;;;;;;4.60;1.60;;;;;;;30.51;35.27;99478.75;117374;1185;21849;-55
2022/06/21 06:46:31;;;;;;;3.80;1.80;;;;;;;30.59;35.78;99472.23;117328;1182;22639;-56
2022/06/21 06:49:14;;;;;;;6.10;1.40;;;;;;;30.67;35.64;99464.86;117299;1185;21849;-56
2022/06/21 06:52:01;;;;;;;5.50;1.60;;;;;;;30.76;35.72;99462.73;117311;1186;21849;-56
2022/06/21 06:54:33;;;;;;;2.70;1.40;;;;;;;30.87;35.22;99467.54;117385;1182;23300;-55
2022/06/21 06:57:20;;;;;;;4.70;1.50;;;;;;;30.90;35.05;99470.96;117312;1185;24223;-55
2022/06/21 06:59:48;;;;;;;3.60;1.70;;;;;;;30.97;34.42;99471.03;117406;1185;21878;-56
2022/06/21 07:02:40;;;;;;;2.70;1.50;;;;;;;31.12;34.30;99476.16;117313;1185;21846;-55
2022/06/21 07:05:14;;;;;;;4.80;1.40;;;;;;;31.08;32.43;99479.13;117327;1184;21959;-56
2022/06/21 07:07:45;;;;;;;3.40;1.60;;;;;;;31.13;32.98;99483.98;117477;1182;22976;-56
2022/06/21 07:10:19;;;;;;;2.40;1.60;;;;;;;31.19;33.58;99486.17;117314;1182;22619;-56
2022/06/21 07:12:46;;;;;;;5.80;1.50;;;;;;;31.19;33.18;99476.97;117403;1186;23572;-55
2022/06/21 07:15:13;;;;;;;3.30;1.40;;;;;;;31.15;33.34;99470.30;117316;1182;22603;-55
2022/06/21 07:17:55;;;;;;;4.50;1.70;;;;;;;31.20;34.37;99460.05;117439;1183;22911;-56
2022/06/21 07:20:24;;;;;;;2.60;1.30;;;;;;;31.35;33.51;99466.48;117352;1185;21885;-55
2022/06/21 07:22:52;;;;;;;4.50;1.40;;;;;;;31.49;32.20;99476.79;117448;1181;23426;-54
2022/06/21 07:25:32;;;;;;;2.70;1.50;;;;;;;31.52;32.22;99477.52;117490;1184;23000;-56
2022/06/21 07:28:02;;;;;;;4.50;1.70;;;;;;;31.42;31.34;99468.36;117424;1184;22905;-56
2022/06/21 07:30:33;;;;;;;4.20;1.30;;;;;;;31.36;30.51;99464.34;117375;1185;21876;-55
2022/06/21 07:33:02;;;;;;;3.20;1.20;;;;;;;31.34;31.02;99460.28;117381;1182;22640;-56
2022/06/21 07:35:38;;;;;;;3.40;1.50;;;;;;;31.34;31.12;99464.30;117450;1182;22914;-54
2022/06/21 07:38:19;;;;;;;3.20;1.60;;;;;;;31.33;30.26;99465.86;117398;1183;22636;-56
2022/06/21 07:40:51;;;;;;;3.20;1.30;;;;;;;31.49;31.48;99466.29;117424;1186;23462;-56
2022/06/21 07:43:26;;;;;;;4.10;1.70;;;;;;;31.63;31.26;99469.05;117310;1185;21843;-56
2022/06/21 07:45:57;;;;;;;2.90;1.50;;;;;;;31.76;31.25;99467.55;117455;1184;21847;-56
2022/06/21 07:48:42;;;;;;;3.30;1.20;;;;;;;31.84;30.28;99461.35;117424;1185;23118;-56
2022/06/21 07:51:30;;;;;;;5.40;1.40;;;;;;;31.93;30.88;99459.84;117318;1182;22916;-56
2022/06/21 07:54:08;;;;;;;4.10;1.30;;;;;;;31.94;29.77;99467.30;117368;1180;21842;-57
2022/06/21 07:56:46;;;;;;;4.50;1.50;;;;;;;32.02;29.97;99467.61;117413;1182;21933;-55
2022/06/21 07:59:18;;;;;;;1.40;1.00;;;;;;;32.18;29.85;99461.59;117283;1182;23477;-55
2022/06/21 08:07:35;;;;;;;3.60;1.20;;;;;;;32.35;30.26;99451.51;117379;1184;21986;-56
2022/06/21 08:10:15;;;;;;;3.50;1.30;;;;;;;32.47;28.76;99451.33;118475;1182;23538;-54
2022/06/21 08:12:42;;;;;;;6.00;1.10;;;;;;;32.57;28.98;99447.05;117392;1181;22293;-54
2022/06/21 08:15:09;;;;;;;5.20;1.50;;;;;;;32.66;29.37;99445.09;117410;1183;23537;-54
2022/06/21 08:17:43;;;;;;;3.30;1.40;;;;;;;32.75;29.40;99441.28;117343;1184;23039;-56
2022/06/21 08:20:23;;;;;;;19.80;2.50;;;;;;;32.70;28.92;99439.37;117335;1182;23432;-56
2022/06/21 08:23:01;;;;;;;2.80;1.30;;;;;;;32.62;29.64;99435.32;117518;1185;22918;-54
2022/06/21 08:25:32;;;;;;;13.10;2.20;;;;;;;32.70;29.68;99434.80;117385;1182;23438;-56
2022/06/21 08:28:22;;;;;;;2.90;1.50;;;;;;;32.82;29.49;99433.19;117389;1182;21876;-56
2022/06/21 08:30:56;;;;;;;;;;;;;;;32.90;29.22;99432.55;117331;1182;23558;-56
2022/06/21 08:33:35;;;;;;;57.10;6.00;;;;;;;32.97;28.66;99430.52;117320;1185;21863;-57
2022/06/21 08:36:30;;;;;;;3.80;1.30;;;;;;;33.03;28.63;99424.77;117348;1182;22642;-56
2022/06/21 08:39:07;;;;;;;2.80;1.40;;;;;;;33.15;28.03;99425.21;117344;1184;23601;-56
2022/06/21 08:41:59;;;;;;;3.40;1.40;;;;;;;33.15;27.06;99421.90;117386;1182;24158;-56
2022/06/21 08:44:45;;;;;;;4.20;1.50;;;;;;;33.15;27.51;99422.58;117434;1185;23458;-56
2022/06/21 08:47:28;;;;;;;8.90;1.80;;;;;;;33.29;28.05;99416.68;117391;1179;24146;-56
2022/06/21 08:50:33;;;;;;;2.00;1.30;;;;;;;33.35;27.76;99407.02;117371;1182;21883;-56
2022/06/21 08:53:09;;;;;;;2.20;1.20;;;;;;;33.49;27.68;99404.47;117385;1182;22921;-56
2022/06/21 08:55:48;;;;;;;3.30;1.40;;;;;;;33.71;27.19;99401.90;117413;1182;21912;-56
2022/06/21 08:58:34;;;;;;;8.20;2.00;;;;;;;33.96;28.16;99401.61;117384;1182;22643;-56
2022/06/21 09:01:26;;;;;;;6.30;1.50;;;;;;;34.11;27.85;99406.24;117453;1185;21887;-57
2022/06/21 09:03:56;;;;;;;6.20;1.40;;;;;;;34.25;27.70;99401.52;117410;1186;23018;-55
2022/06/21 09:06:32;;;;;;;;;;;;;;;34.44;27.51;99398.37;117453;1186;21829;-55
2022/06/21 09:09:27;;;;;;;2.40;1.20;;;;;;;34.59;27.47;99396.98;117398;1182;22911;-54
2022/06/21 09:11:55;;;;;;;3.70;1.50;;;;;;;34.66;27.05;99396.48;117317;1182;22747;-55
2022/06/21 09:14:52;;;;;;;2.50;1.40;;;;;;;34.67;26.70;99393.73;117865;1182;21855;-55
2022/06/21 09:17:25;;;;;;;3.90;1.40;;;;;;;34.68;26.80;99393.20;117322;1183;22985;-55
2022/06/21 09:20:08;;;;;;;2.90;1.90;;;;;;;34.77;27.00;99393.41;117453;1183;23541;-55
2022/06/21 09:23:06;;;;;;;3.50;1.60;;;;;;;34.90;27.03;99389.84;117372;1182;21891;-55
2022/06/21 09:25:48;;;;;;;1.90;1.30;;;;;;;35.20;26.91;99388.94;117405;1181;21862;-55
2022/06/21 09:28:38;;;;;;;4.60;1.30;;;;;;;35.38;26.65;99380.13;117417;1186;21861;-54
2022/06/21 09:31:19;;;;;;;7.20;1.60;;;;;;;35.58;25.99;99378.21;117387;1182;23681;-54
2022/06/21 09:33:50;;;;;;;4.30;1.60;;;;;;;35.58;25.95;99371.15;117384;1186;21843;-54
2022/06/21 09:36:22;;;;;;;3.60;1.60;;;;;;;35.53;26.32;99365.63;117396;1182;23563;-54
2022/06/21 09:39:08;;;;;;;3.60;1.40;;;;;;;35.63;26.51;99366.23;117358;1183;22915;-55
2022/06/21 09:41:55;;;;;;;4.90;1.60;;;;;;;35.67;26.71;99359.64;117408;1182;24169;-55
2022/06/21 09:44:44;;;;;;;5.60;1.60;;;;;;;35.87;26.33;99363.61;117524;1185;22915;-54
2022/06/21 09:47:18;;;;;;;4.90;1.30;;;;;;;35.89;25.35;99367.27;117377;1183;23541;-54
2022/06/21 09:50:03;;;;;;;3.90;1.40;;;;;;;35.82;26.30;99355.77;117435;1185;22908;-55
2022/06/21 09:52:31;;;;;;;5.10;1.40;;;;;;;35.92;26.02;99348.84;117416;1185;22985;-54
2022/06/21 09:55:01;;;;;;;6.00;1.60;;;;;;;36.19;26.18;99339.82;117373;1184;22886;-54
2022/06/21 09:57:40;;;;;;;;;;;;;;;36.47;25.63;99329.80;117392;1183;23423;-53
2022/06/21 10:00:16;;;;;;;2.40;1.30;;;;;;;36.49;24.79;99324.07;117394;1183;22293;-54
2022/06/21 10:02:46;;;;;;;3.80;1.90;;;;;;;36.28;25.29;99322.29;117378;1186;22918;-55
2022/06/21 10:05:19;;;;;;;2.70;1.60;;;;;;;36.23;24.77;99329.37;117331;1184;21846;-57
2022/06/21 10:08:09;;;;;;;7.60;2.10;;;;;;;36.19;24.90;99324.55;117644;1182;23640;-56
2022/06/21 10:10:55;;;;;;;3.00;1.90;;;;;;;36.19;25.04;99332.76;117323;1180;22933;-56
2022/06/21 10:13:22;;;;;;;5.60;1.60;;;;;;;36.23;24.43;99338.69;117332;1185;22803;-55
2022/06/21 10:16:14;;;;;;;4.30;1.80;;;;;;;36.32;25.05;99332.44;117354;1183;21891;-55
2022/06/21 10:18:53;;;;;;;2.70;1.50;;;;;;;36.58;25.38;99328.10;117403;1186;23428;-54
2022/06/21 10:21:48;;;;;;;3.10;1.40;;;;;;;36.77;24.84;99334.11;117405;1183;22915;-54
2022/06/21 10:24:58;;;;;;;4.70;1.70;;;;;;;36.77;24.21;99328.75;117381;1182;22641;-54
2022/06/21 10:27:49;;;;;;;7.50;2.20;;;;;;;36.88;24.57;99326.11;117480;1183;22896;-55
2022/06/21 10:30:25;;;;;;;3.30;1.60;;;;;;;37.14;24.71;99323.42;117324;1183;23566;-54
2022/06/21 10:32:55;;;;;;;4.30;1.80;;;;;;;37.37;24.67;99322.19;117393;1185;22899;-55
2022/06/21 10:35:51;;;;;;;5.40;1.50;;;;;;;37.48;24.90;99314.59;117346;1185;23566;-55
2022/06/21 10:38:55;;;;;;;6.90;1.50;;;;;;;37.57;24.60;99311.83;117360;1181;23777;-55
2022/06/21 10:42:46;;;;;;;4.50;1.60;;;;;;;37.64;24.25;99304.05;117276;1186;23640;-55
2022/06/21 10:44:56;;;;;;;3.50;1.60;;;;;;;37.65;24.28;99298.09;117717;1186;23031;-55
2022/06/21 10:47:52;;;;;;;4.90;1.70;;;;;;;37.63;23.81;99290.17;117381;1186;23625;-55
2022/06/21 10:50:22;;;;;;;4.60;1.70;;;;;;;37.62;23.18;99284.77;117362;1186;21852;-56
2022/06/21 10:53:21;;;;;;;10.10;1.90;;;;;;;37.52;23.03;99280.46;117364;1186;23438;-54
2022/06/21 10:55:47;;;;;;;4.90;1.80;;;;;;;37.40;23.31;99287.94;117348;1184;21893;-54
2022/06/21 10:58:24;;;;;;;7.00;1.70;;;;;;;37.27;23.56;99283.39;117359;1186;21892;-54
2022/06/21 11:01:18;;;;;;;2.40;1.70;;;;;;;37.34;23.87;99281.26;117371;1183;21891;-56
2022/06/21 11:04:05;;;;;;;3.10;1.50;;;;;;;37.42;23.74;99272.19;117318;1182;23894;-56
2022/06/21 11:07:02;;;;;;;4.10;1.70;;;;;;;37.51;23.71;99268.65;117314;1186;21841;-56
2022/06/21 11:09:38;;;;;;;9.10;1.60;;;;;;;37.58;23.83;99267.10;117394;1185;23563;-55
2022/06/21 11:15:06;;;;;;;7.10;1.80;;;;;;;37.68;23.49;99255.42;117352;1182;23614;-55
2022/06/21 11:18:12;;;;;;;6.40;1.90;;;;;;;37.80;23.93;99247.83;117386;1186;22828;-55
2022/06/21 11:21:00;;;;;;;3.70;1.50;;;;;;;37.82;23.33;99242.32;117339;1182;23668;-55
2022/06/21 11:23:38;;;;;;;5.60;1.80;;;;;;;37.62;23.11;99237.64;117354;1186;21872;-56
2022/06/21 11:26:27;;;;;;;5.60;2.50;;;;;;;37.66;23.50;99235.16;117389;1185;21837;-55
2022/06/21 11:29:54;;;;;;;3.80;1.80;;;;;;;37.75;23.17;99231.52;117445;1185;21891;-55
2022/06/21 11:33:00;;;;;;;4.20;1.60;;;;;;;37.69;22.51;99231.41;116938;1188;23453;-56
2022/06/21 11:36:24;;;;;;;3.30;1.80;;;;;;;37.63;23.41;99226.54;116803;1188;21856;-55
2022/06/21 11:39:11;;;;;;;3.50;1.50;;;;;;;37.71;22.85;99219.29;116746;1189;22946;-55
2022/06/21 11:44:35;;;;;;;3.10;1.80;;;;;;;37.78;22.70;99212.97;117236;1186;23077;-55
2022/06/21 11:47:15;;;;;;;6.50;1.90;;;;;;;37.74;22.83;99212.67;117446;1182;22915;-55
2022/06/21 11:50:05;;;;;;;2.90;1.80;;;;;;;37.78;22.91;99215.13;117537;1185;23663;-55
2022/06/21 11:52:51;;;;;;;6.70;1.70;;;;;;;37.95;23.24;99213.07;117434;1182;23537;-55
2022/06/21 11:55:26;;;;;;;6.20;1.90;;;;;;;38.14;22.84;99210.35;117298;1186;22859;-56
2022/06/21 11:58:35;;;;;;;5.30;2.20;;;;;;;38.09;22.30;99210.52;117309;1185;22035;-57
2022/06/21 12:01:23;;;;;;;4.40;1.70;;;;;;;38.11;22.71;99204.45;117431;1185;21849;-57
2022/06/21 12:04:04;;;;;;;3.20;1.70;;;;;;;38.29;22.37;99202.89;117316;1182;23555;-56
2022/06/21 12:06:38;;;;;;;6.90;1.90;;;;;;;38.24;22.33;99197.02;117329;1183;23690;-56
2022/06/21 12:09:31;;;;;;;5.40;1.80;;;;;;;38.24;22.73;99194.06;117425;1185;21839;-56
2022/06/21 12:12:07;;;;;;;3.70;1.50;;;;;;;38.17;22.26;99193.95;117417;1186;22032;-56
2022/06/21 12:14:37;;;;;;;3.70;2.10;;;;;;;38.15;22.47;99193.25;117414;1183;23669;-57
2022/06/21 12:17:14;;;;;;;4.60;1.50;;;;;;;38.25;22.86;99191.61;117296;1186;21893;-57
2022/06/21 12:19:42;;;;;;;4.70;1.60;;;;;;;38.43;22.51;99187.73;117434;1185;22723;-56
2022/06/21 12:22:32;;;;;;;2.70;1.70;;;;;;;38.57;22.31;99184.85;117348;1185;21855;-55
2022/06/21 12:24:59;;;;;;;4.00;1.50;;;;;;;38.70;22.61;99179.92;117387;1184;22959;-55
2022/06/21 12:27:27;;;;;;;6.30;1.70;;;;;;;38.86;22.40;99173.80;117387;1186;21843;-55
2022/06/21 12:30:06;;;;;;;2.70;1.70;;;;;;;39.02;22.15;99169.84;117353;1185;21904;-55